METAR Data
IDs: Format: Raw Decoded Include TAF

Data at: 2246 UTC 30 Jun 2022

METAR for:KLUX (Laurens Cnty, SC, US)
Text:KLUX 302235Z AUTO 12006KT 10SM CLR 30/19 A3014 RMK AO2
Temperature: 30.0°C ( 86°F)
Dewpoint: 19.0°C ( 66°F) [RH = 52%]
Pressure (altimeter):30.14 inches Hg (1020.7 mb)
Winds:from the ESE (120 degrees) at 7 MPH (6 knots; 3.1 m/s)
Visibility:10 or more sm (16+ km)
Ceiling:at least 12,000 feet AGL
Clouds:sky clear below 12,000 feet AGL
QC Flag:automated observation with no human augmentation

TAF for:KLUX (Laurens Cnty, SC, US)
Text:No data found